METAR Data
IDs: Format: Raw Decoded Include TAF

Data at: 0132 UTC 20 Jan 2022

LFOP 200100Z AUTO 35004KT CAVOK 03/02 Q1029